MAI212 GQNO-GOBD
Flight info
| Callsign | MAI212 |
|---|---|
| Flight time | 0h 50m |
| Altitude | 34000 |
| Route | AMSEP DCT ARDOS DCT VISPA DCT ARBEN DCT SAKLI SAKL1A |
| Aircraft | B738/M-V/N |
Departure
| Time | 2026-04-21 17:25 |
|---|---|
| Airport | Nouakchott–Oumtounsy International Airport (GQNO) |
Arrival
| Time | 2026-04-21 18:16 |
|---|---|
| Airport | Blaise Diagne International Airport (GOBD) |
| Time | Latitude | Longitude | Altitude | Speed | Heading |
|---|---|---|---|---|---|
| 2026-04-21 16:58 | 18.30809 | -15.96375 | 8 ft | 0 kts | 58° |
| 2026-04-21 17:16 | 18.30807 | -15.96378 | 8 ft | 3 kts | 58° |
| 2026-04-21 17:16 | 18.30794 | -15.96403 | 9 ft | 4 kts | 62° |
| 2026-04-21 17:17 | 18.30782 | -15.96428 | 9 ft | 4 kts | 67° |
| 2026-04-21 17:17 | 18.30772 | -15.96455 | 11 ft | 4 kts | 76° |
| 2026-04-21 17:17 | 18.30769 | -15.96482 | 9 ft | 4 kts | 102° |
| 2026-04-21 17:17 | 18.30778 | -15.96498 | 12 ft | 1 kts | 149° |
| 2026-04-21 17:18 | 18.30781 | -15.96500 | 10 ft | 1 kts | 149° |
| 2026-04-21 17:20 | 18.30776 | -15.96497 | 11 ft | 3 kts | 149° |
| 2026-04-21 17:20 | 18.30740 | -15.96474 | 9 ft | 8 kts | 149° |
| 2026-04-21 17:21 | 18.30678 | -15.96436 | 10 ft | 12 kts | 149° |
| 2026-04-21 17:21 | 18.30598 | -15.96419 | 11 ft | 13 kts | 221° |
| 2026-04-21 17:21 | 18.30553 | -15.96459 | 12 ft | 13 kts | 194° |
| 2026-04-21 17:21 | 18.30465 | -15.96422 | 12 ft | 17 kts | 146° |
| 2026-04-21 17:22 | 18.30354 | -15.96351 | 14 ft | 20 kts | 147° |
| 2026-04-21 17:22 | 18.30239 | -15.96275 | 17 ft | 20 kts | 148° |
| 2026-04-21 17:22 | 18.30111 | -15.96190 | 14 ft | 24 kts | 147° |
| 2026-04-21 17:22 | 18.29965 | -15.96091 | 13 ft | 27 kts | 147° |
| 2026-04-21 17:23 | 18.29796 | -15.95979 | 10 ft | 31 kts | 149° |
| 2026-04-21 17:23 | 18.29607 | -15.95859 | 8 ft | 33 kts | 149° |
| 2026-04-21 17:23 | 18.29417 | -15.95737 | 10 ft | 27 kts | 149° |
| 2026-04-21 17:23 | 18.29268 | -15.95643 | 10 ft | 23 kts | 147° |
| 2026-04-21 17:24 | 18.29161 | -15.95574 | 13 ft | 17 kts | 153° |
| 2026-04-21 17:24 | 18.29084 | -15.95613 | 11 ft | 14 kts | 238° |
| 2026-04-21 17:24 | 18.29078 | -15.95699 | 10 ft | 13 kts | 320° |
| 2026-04-21 17:24 | 18.29159 | -15.95747 | 9 ft | 17 kts | 329° |
| 2026-04-21 17:25 | 18.29473 | -15.95952 | 7 ft | 90 kts | 328° |
| 2026-04-21 17:25 | 18.30195 | -15.96418 | 25 ft | 150 kts | 328° |
| 2026-04-21 17:25 | 18.31143 | -15.97022 | 625 ft | 163 kts | 326° |
| 2026-04-21 17:25 | 18.32172 | -15.97617 | 1371 ft | 173 kts | 333° |
| 2026-04-21 17:26 | 18.33242 | -15.98236 | 2075 ft | 183 kts | 331° |
| 2026-04-21 17:26 | 18.34545 | -15.98640 | 2344 ft | 211 kts | 0° |
| 2026-04-21 17:26 | 18.36012 | -15.98151 | 2547 ft | 237 kts | 34° |
| 2026-04-21 17:26 | 18.37083 | -15.96761 | 2917 ft | 258 kts | 66° |
| 2026-04-21 17:27 | 18.37334 | -15.94837 | 3329 ft | 275 kts | 101° |
| 2026-04-21 17:27 | 18.36612 | -15.93005 | 4114 ft | 272 kts | 130° |
| 2026-04-21 17:27 | 18.35378 | -15.91505 | 4882 ft | 276 kts | 135° |
| 2026-04-21 17:27 | 18.34034 | -15.90022 | 5635 ft | 280 kts | 144° |
| 2026-04-21 17:28 | 18.32299 | -15.89199 | 6374 ft | 274 kts | 175° |
| 2026-04-21 17:28 | 18.30398 | -15.89013 | 7171 ft | 275 kts | 179° |
| 2026-04-21 17:28 | 18.28487 | -15.88873 | 7963 ft | 276 kts | 180° |
| 2026-04-21 17:28 | 18.26558 | -15.88732 | 8720 ft | 280 kts | 180° |
| 2026-04-21 17:29 | 18.24606 | -15.88582 | 9505 ft | 283 kts | 180° |
| 2026-04-21 17:29 | 18.22634 | -15.88421 | 10210 ft | 288 kts | 180° |
| 2026-04-21 17:29 | 18.20580 | -15.88251 | 10413 ft | 312 kts | 180° |
| 2026-04-21 17:29 | 18.18306 | -15.88057 | 10599 ft | 334 kts | 179° |
| 2026-04-21 17:30 | 18.15971 | -15.87849 | 11017 ft | 345 kts | 179° |
| 2026-04-21 17:30 | 18.13566 | -15.87627 | 11667 ft | 349 kts | 179° |
| 2026-04-21 17:30 | 18.11141 | -15.87400 | 12381 ft | 351 kts | 179° |
| 2026-04-21 17:30 | 18.08701 | -15.87171 | 13075 ft | 353 kts | 179° |
| 2026-04-21 17:31 | 18.06239 | -15.86941 | 13723 ft | 357 kts | 179° |
| 2026-04-21 17:31 | 18.03749 | -15.86709 | 14273 ft | 362 kts | 179° |
| 2026-04-21 17:31 | 18.01219 | -15.86474 | 14802 ft | 367 kts | 179° |
| 2026-04-21 17:31 | 17.98659 | -15.86236 | 15346 ft | 372 kts | 179° |
| 2026-04-21 17:32 | 17.96067 | -15.85996 | 15889 ft | 376 kts | 179° |
| 2026-04-21 17:32 | 17.93449 | -15.85752 | 16429 ft | 380 kts | 180° |
| 2026-04-21 17:32 | 17.90802 | -15.85506 | 16963 ft | 384 kts | 180° |
| 2026-04-21 17:32 | 17.88122 | -15.85258 | 17484 ft | 389 kts | 180° |
| 2026-04-21 17:33 | 17.85409 | -15.85006 | 17974 ft | 394 kts | 180° |
| 2026-04-21 17:33 | 17.82665 | -15.84751 | 18435 ft | 398 kts | 180° |
| 2026-04-21 17:33 | 17.79895 | -15.84494 | 18851 ft | 402 kts | 180° |
| 2026-04-21 17:33 | 17.77088 | -15.84233 | 19257 ft | 407 kts | 180° |
| 2026-04-21 17:34 | 17.74255 | -15.83971 | 19652 ft | 411 kts | 180° |
| 2026-04-21 17:34 | 17.71389 | -15.83782 | 20028 ft | 412 kts | 186° |
| 2026-04-21 17:34 | 17.68549 | -15.84068 | 20419 ft | 410 kts | 196° |
| 2026-04-21 17:34 | 17.65805 | -15.84830 | 20804 ft | 406 kts | 206° |
| 2026-04-21 17:35 | 17.63170 | -15.85922 | 21185 ft | 408 kts | 208° |
| 2026-04-21 17:35 | 17.60532 | -15.87062 | 21568 ft | 412 kts | 208° |
| 2026-04-21 17:35 | 17.57871 | -15.88221 | 21921 ft | 416 kts | 208° |
| 2026-04-21 17:35 | 17.55188 | -15.89385 | 22269 ft | 419 kts | 208° |
| 2026-04-21 17:36 | 17.52475 | -15.90550 | 22620 ft | 423 kts | 208° |
| 2026-04-21 17:36 | 17.49773 | -15.91702 | 22942 ft | 426 kts | 208° |
| 2026-04-21 17:36 | 17.46975 | -15.92888 | 23280 ft | 430 kts | 208° |
| 2026-04-21 17:36 | 17.44194 | -15.94063 | 23559 ft | 433 kts | 208° |
| 2026-04-21 17:37 | 17.41432 | -15.95228 | 23845 ft | 435 kts | 208° |
| 2026-04-21 17:37 | 17.38620 | -15.96411 | 24170 ft | 436 kts | 208° |
| 2026-04-21 17:37 | 17.35806 | -15.97594 | 24482 ft | 437 kts | 208° |
| 2026-04-21 17:37 | 17.32980 | -15.98783 | 24780 ft | 438 kts | 208° |
| 2026-04-21 17:38 | 17.30149 | -15.99975 | 25061 ft | 440 kts | 208° |
| 2026-04-21 17:38 | 17.27304 | -16.01172 | 25338 ft | 442 kts | 208° |
| 2026-04-21 17:38 | 17.24445 | -16.02375 | 25625 ft | 443 kts | 208° |
| 2026-04-21 17:38 | 17.21586 | -16.03577 | 25907 ft | 444 kts | 209° |
| 2026-04-21 17:39 | 17.18714 | -16.04785 | 26173 ft | 446 kts | 209° |
| 2026-04-21 17:39 | 17.15833 | -16.05995 | 26442 ft | 447 kts | 209° |
| 2026-04-21 17:39 | 17.12943 | -16.07210 | 26699 ft | 449 kts | 209° |
| 2026-04-21 17:39 | 17.10042 | -16.08428 | 26949 ft | 450 kts | 209° |
| 2026-04-21 17:40 | 17.07135 | -16.09649 | 27203 ft | 451 kts | 209° |
| 2026-04-21 17:40 | 17.04211 | -16.10876 | 27443 ft | 453 kts | 209° |
| 2026-04-21 17:40 | 17.01285 | -16.12104 | 27687 ft | 454 kts | 209° |
| 2026-04-21 17:40 | 16.98345 | -16.13337 | 27948 ft | 455 kts | 209° |
| 2026-04-21 17:41 | 16.95404 | -16.14570 | 28178 ft | 456 kts | 209° |
| 2026-04-21 17:41 | 16.92454 | -16.15806 | 28408 ft | 458 kts | 209° |
| 2026-04-21 17:41 | 16.89495 | -16.17046 | 28639 ft | 459 kts | 209° |
| 2026-04-21 17:41 | 16.86528 | -16.18289 | 28857 ft | 460 kts | 209° |
| 2026-04-21 17:42 | 16.83554 | -16.19534 | 29045 ft | 462 kts | 209° |
| 2026-04-21 17:42 | 16.80569 | -16.20784 | 29240 ft | 463 kts | 209° |
| 2026-04-21 17:42 | 16.77614 | -16.22021 | 29430 ft | 464 kts | 209° |
| 2026-04-21 17:42 | 16.74612 | -16.23277 | 29635 ft | 465 kts | 209° |
| 2026-04-21 17:43 | 16.71606 | -16.24533 | 29829 ft | 467 kts | 209° |
| 2026-04-21 17:43 | 16.68588 | -16.25795 | 30015 ft | 467 kts | 209° |
| 2026-04-21 17:43 | 16.65569 | -16.27056 | 30220 ft | 467 kts | 209° |
| 2026-04-21 17:43 | 16.62560 | -16.28311 | 30505 ft | 465 kts | 209° |
| 2026-04-21 17:44 | 16.59571 | -16.29557 | 30876 ft | 460 kts | 209° |
| 2026-04-21 17:44 | 16.56610 | -16.30792 | 31236 ft | 456 kts | 209° |
| 2026-04-21 17:44 | 16.53675 | -16.32017 | 31601 ft | 453 kts | 209° |
| 2026-04-21 17:44 | 16.50755 | -16.33237 | 31863 ft | 452 kts | 209° |
| 2026-04-21 17:45 | 16.44885 | -16.35687 | 31864 ft | 455 kts | 208° |
| 2026-04-21 17:45 | 16.38741 | -16.37474 | 31868 ft | 460 kts | 200° |
| 2026-04-21 17:46 | 16.32501 | -16.38943 | 31874 ft | 459 kts | 200° |
| 2026-04-21 17:46 | 16.26294 | -16.40435 | 31877 ft | 457 kts | 200° |
| 2026-04-21 17:47 | 16.20112 | -16.41955 | 31881 ft | 457 kts | 200° |
| 2026-04-21 17:47 | 16.13922 | -16.43481 | 31884 ft | 457 kts | 200° |
| 2026-04-21 17:48 | 16.07725 | -16.45006 | 31885 ft | 458 kts | 200° |
| 2026-04-21 17:48 | 16.01876 | -16.47263 | 31902 ft | 442 kts | 216° |
| 2026-04-21 17:49 | 15.96497 | -16.50409 | 31890 ft | 444 kts | 216° |
| 2026-04-21 17:49 | 15.91114 | -16.53517 | 31880 ft | 446 kts | 216° |
| 2026-04-21 17:50 | 15.85661 | -16.56624 | 31878 ft | 448 kts | 215° |
| 2026-04-21 17:50 | 15.80187 | -16.59726 | 31841 ft | 449 kts | 215° |
| 2026-04-21 17:51 | 15.77417 | -16.61298 | 31222 ft | 456 kts | 215° |
| 2026-04-21 17:51 | 15.74638 | -16.62871 | 30624 ft | 453 kts | 215° |
| 2026-04-21 17:51 | 15.71849 | -16.64446 | 30126 ft | 449 kts | 215° |
| 2026-04-21 17:51 | 15.69151 | -16.65971 | 29547 ft | 446 kts | 215° |
| 2026-04-21 17:52 | 15.66437 | -16.67505 | 28980 ft | 442 kts | 215° |
| 2026-04-21 17:52 | 15.63714 | -16.69045 | 28431 ft | 438 kts | 215° |
| 2026-04-21 17:52 | 15.61082 | -16.70533 | 27906 ft | 434 kts | 215° |
| 2026-04-21 17:52 | 15.58444 | -16.72025 | 27391 ft | 430 kts | 215° |
| 2026-04-21 17:53 | 15.55827 | -16.73505 | 26873 ft | 427 kts | 215° |
| 2026-04-21 17:53 | 15.53225 | -16.74977 | 26345 ft | 425 kts | 215° |
| 2026-04-21 17:53 | 15.50638 | -16.76440 | 25828 ft | 422 kts | 215° |
| 2026-04-21 17:53 | 15.48065 | -16.77894 | 25297 ft | 421 kts | 215° |
| 2026-04-21 17:54 | 15.45502 | -16.79343 | 24787 ft | 419 kts | 214° |
| 2026-04-21 17:54 | 15.42944 | -16.80788 | 24275 ft | 418 kts | 214° |
| 2026-04-21 17:54 | 15.40397 | -16.82226 | 23764 ft | 417 kts | 214° |
| 2026-04-21 17:54 | 15.37852 | -16.83664 | 23198 ft | 416 kts | 214° |
| 2026-04-21 17:55 | 15.35318 | -16.85093 | 22643 ft | 413 kts | 214° |
| 2026-04-21 17:55 | 15.32804 | -16.86510 | 22124 ft | 410 kts | 214° |
| 2026-04-21 17:55 | 15.30224 | -16.87769 | 21549 ft | 413 kts | 202° |
| 2026-04-21 17:55 | 15.27425 | -16.88525 | 20937 ft | 416 kts | 198° |
| 2026-04-21 17:56 | 15.24602 | -16.89174 | 20407 ft | 413 kts | 197° |
| 2026-04-21 17:56 | 15.21808 | -16.89802 | 19919 ft | 409 kts | 196° |
| 2026-04-21 17:56 | 15.19044 | -16.90435 | 19439 ft | 405 kts | 197° |
| 2026-04-21 17:56 | 15.16317 | -16.91078 | 18967 ft | 400 kts | 197° |
| 2026-04-21 17:57 | 15.13615 | -16.91728 | 18499 ft | 396 kts | 197° |
| 2026-04-21 17:57 | 15.10949 | -16.92378 | 18003 ft | 392 kts | 197° |
| 2026-04-21 17:57 | 15.08307 | -16.93024 | 17485 ft | 388 kts | 197° |
| 2026-04-21 17:57 | 15.05696 | -16.93664 | 16998 ft | 383 kts | 196° |
| 2026-04-21 17:58 | 15.03124 | -16.94295 | 16529 ft | 378 kts | 196° |
| 2026-04-21 17:58 | 15.00578 | -16.94919 | 16076 ft | 374 kts | 196° |
| 2026-04-21 17:58 | 14.98059 | -16.95535 | 15625 ft | 370 kts | 196° |
| 2026-04-21 17:58 | 14.95570 | -16.96144 | 15181 ft | 366 kts | 196° |
| 2026-04-21 17:59 | 14.93136 | -16.96739 | 14751 ft | 362 kts | 196° |
| 2026-04-21 17:59 | 14.90640 | -16.97247 | 14326 ft | 361 kts | 187° |
| 2026-04-21 17:59 | 14.88139 | -16.97281 | 13937 ft | 359 kts | 181° |
| 2026-04-21 17:59 | 14.85654 | -16.97204 | 13511 ft | 356 kts | 181° |
| 2026-04-21 18:00 | 14.83190 | -16.97133 | 13058 ft | 352 kts | 181° |
| 2026-04-21 18:00 | 14.80785 | -16.97090 | 12632 ft | 348 kts | 182° |
| 2026-04-21 18:00 | 14.78374 | -16.97064 | 12214 ft | 345 kts | 181° |
| 2026-04-21 18:00 | 14.75989 | -16.97043 | 11799 ft | 341 kts | 181° |
| 2026-04-21 18:01 | 14.73624 | -16.97023 | 11384 ft | 338 kts | 181° |
| 2026-04-21 18:01 | 14.71281 | -16.97003 | 10978 ft | 335 kts | 180° |
| 2026-04-21 18:01 | 14.68963 | -16.96982 | 10576 ft | 332 kts | 180° |
| 2026-04-21 18:01 | 14.66668 | -16.96962 | 10183 ft | 329 kts | 180° |
| 2026-04-21 18:02 | 14.65128 | -16.96948 | 9959 ft | 325 kts | 180° |
| 2026-04-21 18:02 | 14.62210 | -16.96922 | 9869 ft | 308 kts | 180° |
| 2026-04-21 18:02 | 14.60119 | -16.96903 | 9860 ft | 294 kts | 180° |
| 2026-04-21 18:02 | 14.58120 | -16.96885 | 9798 ft | 283 kts | 180° |
| 2026-04-21 18:03 | 14.56161 | -16.96868 | 9527 ft | 279 kts | 180° |
| 2026-04-21 18:03 | 14.54235 | -16.96851 | 9273 ft | 275 kts | 180° |
| 2026-04-21 18:03 | 14.52326 | -16.96834 | 9000 ft | 273 kts | 180° |
| 2026-04-21 18:03 | 14.50434 | -16.96816 | 8728 ft | 271 kts | 179° |
| 2026-04-21 18:04 | 14.48558 | -16.96799 | 8455 ft | 269 kts | 180° |
| 2026-04-21 18:04 | 14.46691 | -16.96783 | 8192 ft | 267 kts | 180° |
| 2026-04-21 18:04 | 14.44839 | -16.96767 | 7930 ft | 266 kts | 180° |
| 2026-04-21 18:04 | 14.42998 | -16.96750 | 7666 ft | 264 kts | 180° |
| 2026-04-21 18:05 | 14.41164 | -16.96734 | 7411 ft | 263 kts | 180° |
| 2026-04-21 18:05 | 14.39335 | -16.96707 | 7142 ft | 263 kts | 179° |
| 2026-04-21 18:05 | 14.37512 | -16.96671 | 6883 ft | 261 kts | 179° |
| 2026-04-21 18:05 | 14.35697 | -16.96632 | 6629 ft | 260 kts | 179° |
| 2026-04-21 18:06 | 14.33890 | -16.96591 | 6371 ft | 259 kts | 179° |
| 2026-04-21 18:06 | 14.32126 | -16.96861 | 6086 ft | 258 kts | 204° |
| 2026-04-21 18:06 | 14.30721 | -16.97960 | 5820 ft | 255 kts | 233° |
| 2026-04-21 18:06 | 14.30021 | -16.99608 | 5565 ft | 253 kts | 259° |
| 2026-04-21 18:07 | 14.29771 | -17.01392 | 5333 ft | 250 kts | 263° |
| 2026-04-21 18:07 | 14.29576 | -17.03168 | 5092 ft | 249 kts | 264° |
| 2026-04-21 18:07 | 14.29388 | -17.04934 | 4851 ft | 247 kts | 264° |
| 2026-04-21 18:07 | 14.29200 | -17.06691 | 4621 ft | 246 kts | 264° |
| 2026-04-21 18:08 | 14.29173 | -17.08437 | 4352 ft | 244 kts | 284° |
| 2026-04-21 18:08 | 14.29592 | -17.09498 | 4192 ft | 241 kts | 304° |
| 2026-04-21 18:08 | 14.30815 | -17.10626 | 3962 ft | 237 kts | 336° |
| 2026-04-21 18:08 | 14.32371 | -17.10873 | 3999 ft | 227 kts | 9° |
| 2026-04-21 18:09 | 14.33798 | -17.10218 | 4005 ft | 227 kts | 39° |
| 2026-04-21 18:09 | 14.34959 | -17.09104 | 4010 ft | 229 kts | 44° |
| 2026-04-21 18:09 | 14.36144 | -17.08010 | 4005 ft | 229 kts | 36° |
| 2026-04-21 18:09 | 14.38000 | -17.07070 | 4004 ft | 225 kts | 9° |
| 2026-04-21 18:10 | 14.39560 | -17.06937 | 3946 ft | 228 kts | 360° |
| 2026-04-21 18:10 | 14.40643 | -17.06952 | 3842 ft | 232 kts | 358° |
| 2026-04-21 18:10 | 14.42258 | -17.06999 | 3751 ft | 231 kts | 358° |
| 2026-04-21 18:10 | 14.43852 | -17.07048 | 3646 ft | 227 kts | 359° |
| 2026-04-21 18:11 | 14.45398 | -17.07075 | 3559 ft | 216 kts | 359° |
| 2026-04-21 18:11 | 14.46840 | -17.07091 | 3466 ft | 203 kts | 359° |
| 2026-04-21 18:11 | 14.48219 | -17.07105 | 3411 ft | 195 kts | 359° |
| 2026-04-21 18:11 | 14.49564 | -17.07115 | 3266 ft | 193 kts | 360° |
| 2026-04-21 18:12 | 14.50897 | -17.07134 | 3040 ft | 190 kts | 359° |
| 2026-04-21 18:12 | 14.52218 | -17.07151 | 2799 ft | 191 kts | 0° |
| 2026-04-21 18:12 | 14.53541 | -17.07155 | 2548 ft | 189 kts | 0° |
| 2026-04-21 18:12 | 14.54849 | -17.07167 | 2316 ft | 187 kts | 0° |
| 2026-04-21 18:13 | 14.56139 | -17.07179 | 2090 ft | 183 kts | 1° |
| 2026-04-21 18:13 | 14.57387 | -17.07189 | 1829 ft | 173 kts | 359° |
| 2026-04-21 18:13 | 14.58516 | -17.07202 | 1629 ft | 153 kts | 1° |
| 2026-04-21 18:13 | 14.59533 | -17.07212 | 1434 ft | 144 kts | 359° |
| 2026-04-21 18:14 | 14.61479 | -17.07231 | 1050 ft | 137 kts | 359° |
| 2026-04-21 18:14 | 14.62426 | -17.07241 | 837 ft | 135 kts | 357° |
| 2026-04-21 18:14 | 14.63364 | -17.07256 | 669 ft | 134 kts | 1° |
| 2026-04-21 18:15 | 14.64299 | -17.07266 | 526 ft | 134 kts | 3° |
| 2026-04-21 18:15 | 14.65219 | -17.07263 | 365 ft | 130 kts | 360° |
| 2026-04-21 18:15 | 14.66102 | -17.07275 | 261 ft | 119 kts | 359° |
| 2026-04-21 18:15 | 14.66778 | -17.07280 | 267 ft | 75 kts | 359° |
| 2026-04-21 18:16 | 14.67045 | -17.07278 | 267 ft | 16 kts | 15° |
| 2026-04-21 18:16 | 14.67075 | -17.07209 | 266 ft | 9 kts | 87° |
| 2026-04-21 18:16 | 14.67077 | -17.07142 | 266 ft | 9 kts | 91° |
| 2026-04-21 18:16 | 14.67076 | -17.07076 | 266 ft | 9 kts | 90° |
| 2026-04-21 18:17 | 14.67077 | -17.07020 | 270 ft | 7 kts | 90° |
| 2026-04-21 18:17 | 14.67048 | -17.06981 | 270 ft | 7 kts | 151° |
| 2026-04-21 18:17 | 14.67024 | -17.06938 | 271 ft | 7 kts | 94° |
| 2026-04-21 18:17 | 14.67024 | -17.06890 | 271 ft | 5 kts | 86° |
| 2026-04-21 18:18 | 14.67024 | -17.06867 | 271 ft | 2 kts | 90° |
| 2026-04-21 18:18 | 14.67024 | -17.06861 | 271 ft | 0 kts | 89° |